• Join FlightAware (Why Join?)
  • Login
  • US Flag 
08:06AM EDT


 

Airport Tracker/Info


-or-


 

Live Flight TrackerFlight Track Log ✈ ASQ4577 ✈ 02-Jun-2013 ✈ KSDF - KCLE

Flight Track Log - Related Links

Times and Time Zones

All times are in EDT time to prevent confusion due to time zone crossing. See the ASQ4577 flight status page for this flight to view local times or setup timezone preferences in your user account.

Time Position Orientation Groundspeed Altitude Reporting Facility
EDT Latitude Longitude Course Direction KTS MPH feet Rate Location/Type
04:41PM 38.3000 -85.7667 355° North 243 280 4,900  Level Louisville TRACON
04:42PM 38.1935 -85.9472 341° North  Level FlightAware Approximate
04:42PM 38.3714 -85.8081 336° Northwest 259 298 7,600  Level Indianapolis Center
04:43PM 38.2907 -85.9747 345° North  Level FlightAware Approximate
04:43PM 38.4400 -85.8442 338° Northwest 266 306 9,800  Level Indianapolis Center
04:44PM 38.3894 -85.9833 North  Level FlightAware Approximate
04:44PM 38.5169 -85.8825 339° North 285 328 11,600  Level Indianapolis Center
04:45PM 38.4912 -85.9842 355° North  Level FlightAware Approximate
04:45PM 38.6175 -85.8456 16° North 346 398 13,300  Level Indianapolis Center
04:46PM 38.5928 -85.9955 355° North  Level FlightAware Approximate
04:46PM 38.6811 -85.7361 53° Northeast 375 432 14,400  Level Indianapolis Center
04:47PM 38.7464 -85.6239 53° Northeast 393 452 15,400 1,020 Climbing Indianapolis Center
04:48PM 38.8144 -85.5100 52° Northeast 401 461 16,500 1,020 Climbing Indianapolis Center
04:49PM 38.8836 -85.3922 53° Northeast 413 475 17,500 960 Climbing Indianapolis Center
04:50PM 38.9547 -85.2758 52° Northeast 415 478 18,500 960 Climbing Indianapolis Center
04:51PM 39.0333 -85.1661 47° Northeast 419 482 19,500 1,080 Climbing Indianapolis Center
04:52PM 39.1269 -85.0317 48° Northeast 423 487 20,800 1,080 Climbing Indianapolis Center
04:53PM 39.2067 -84.9189 48° Northeast 428 493 21,800 960 Climbing Indianapolis Center
04:54PM 39.2856 -84.8047 48° Northeast 429 494 22,800 540 Climbing Indianapolis Center
04:55PM 39.3675 -84.6850 48° Northeast 439 505 23,000 60 Climbing Indianapolis Center
04:56PM 39.4547 -84.5575 48° Northeast 468 539 23,000  Level Indianapolis Center
04:57PM 39.5453 -84.4264 48° Northeast 479 551 23,000  Level Indianapolis Center
04:58PM 39.6375 -84.2931 48° Northeast 489 563 23,000  Level Indianapolis Center
04:59PM 39.7444 -84.1350 49° Northeast 493 567 23,000  Level Indianapolis Center
05:00PM 39.8344 -84.0025 48° Northeast 485 558 23,000  Level Indianapolis Center
05:01PM 39.9228 -83.8714 49° Northeast 477 549 23,000 -60 Level Indianapolis Center
05:02PM 40.0111 -83.7408 49° Northeast 472 543 22,900  Descending Indianapolis Center
05:03PM 40.0994 -83.6081 49° Northeast 473 544 23,000  Climbing Indianapolis Center
05:05PM 40.1883 -83.4731 49° Northeast 479 551 23,000  Level Indianapolis Center
05:06PM 40.2831 -83.3442 46° Northeast 483 556 23,000 -360 Level Indianapolis Center
05:07PM 40.3808 -83.2203 44° Northeast 483 556 22,300 -1,080 Descending Indianapolis Center
05:08PM 40.4769 -83.0972 44° Northeast 477 549 20,800 -1,620 Descending Indianapolis Center
05:09PM 40.5686 -82.9797 44° Northeast 455 524 19,000 -1,680 Descending Indianapolis Center
05:10PM 40.6561 -82.8656 45° Northeast 440 506 17,400 -2,100 Descending Indianapolis Center
05:11PM 40.7386 -82.7600 44° Northeast 413 475 14,700 -2,280 Descending Indianapolis Center
05:12PM 40.8194 -82.6542 45° Northeast 406 467 12,700 -2,160 Descending Indianapolis Center
05:13PM 40.8986 -82.5500 45° Northeast 399 459 10,700 -2,220 Descending Cleveland Center
05:13PM 40.9178 -82.5258 44° Northeast 401 461 10,200 -720 Descending Cleveland Center
05:14PM 40.9733 -82.4533 45° Northeast 388 447 10,000 -240 Descending Cleveland Center
05:14PM 40.9925 -82.4261 47° Northeast 367 422 10,000  Level Cleveland Center
05:15PM 41.0478 -82.3533 45° Northeast 383 441 10,000  Level Cleveland Center
05:15PM 41.0647 -82.3319 44° Northeast 374 430 10,000  Level Cleveland Center
05:16PM 41.1136 -82.2669 45° Northeast 372 428 10,000  Level Cleveland Center
05:16PM 41.1497 -82.2183 45° Northeast 377 434 10,000  Level Cleveland Center
05:17PM 41.1881 -82.1669 45° Northeast 372 428 10,000  Level Cleveland Center
05:17PM 41.2242 -82.1181 46° Northeast 382 440 10,000  Level Cleveland Center
05:18PM 41.2603 -82.0636 49° Northeast 377 434 10,000 -120 Level Cleveland Center
05:18PM 41.2797 -82.0172 61° Northeast 356 410 9,900 -600 Descending Cleveland Center
05:19PM 41.3033 -81.9569 62° Northeast 343 395 9,400 -1,140 Descending Cleveland Center
05:19PM 41.3164 -81.9156 67° East 296 341 8,800 -1,620 Descending Cleveland Center
05:20PM 41.3422 -81.8497 62° Northeast 311 358 7,800 -1,620 Descending Cleveland Center
05:20PM 41.3531 -81.8197 64° Northeast 296 341 7,200 -2,100 Descending Cleveland Center
05:21PM 41.3786 -81.7536 63° Northeast 289 333 5,700 -2,400 Descending Cleveland Center
05:21PM 41.4019 -81.7153 51° Northeast 284 327 4,600 -2,220 Descending Cleveland Center
05:22PM 41.4375 -81.7022 15° North 256 295 3,500 -2,160 Descending Cleveland Center